ADDS METAR Data INFO
IDs: Format: Raw Decoded Include TAF

Data at: 1535 UTC 25 Feb 2018

KNEW 251533Z AUTO 02023KT 1 3/4SM RA BR SCT015 BKN021 OVC026 18/16 A3013 RMK AO2 PK WND 01032/1511 RAB22 P0004 T01780161
KNEW 251527Z AUTO 01022KT 3SM -RA BR BKN015 OVC019 18/16 A3012 RMK AO2 PK WND 01032/1511 RAB22 P0001 T01780161
KNEW 251509Z AUTO 01026G30KT 10SM FEW008 BKN012 OVC070 19/17 A3012 RMK AO2 PK WND 01032/1500 T01890167
KNEW 251502Z AUTO 01027G34KT 9SM BKN012 BKN020 OVC070 19/17 A3011 RMK AO2 PK WND 01032/1500 T01890167
KNEW 251453Z AUTO 36023G34KT 4SM BR SCT008 BKN075 OVC090 20/18 A3011 RMK AO2 PK WND 36034/1453 SLP189 T02000183 51025
KNEW 251434Z AUTO 04005KT 3SM BR SCT022 OVC080 22/21 A3010 RMK AO2 T02170206
KNEW 251420Z AUTO 34004KT 3SM BR SCT019 BKN025 OVC100 22/21 A3010 RMK AO2 T02220206
KNEW 251353Z AUTO 36005KT 3SM BR FEW014 BKN075 OVC095 22/21 A3009 RMK AO2 SLP182 T02170206
KNEW 251340Z AUTO 00000KT 3SM BR SCT016 BKN075 OVC090 22/21 A3008 RMK AO2 T02170206
KNEW 251301Z AUTO 33009KT 2 1/2SM BR BKN020 BKN070 OVC110 21/21 A3007 RMK AO2 T02110206
KNEW 251253Z AUTO 00000KT 3SM BR FEW020 BKN070 OVC110 22/21 A3006 RMK AO2 SLP173 T02170206
KNEW 251153Z AUTO 16003KT 4SM BR BKN110 21/21 A3004 RMK AO2 SLP165 T02110206 10233 20211 53011
KNEW 251053Z AUTO 18007KT 5SM BR CLR 22/21 A3001 RMK AO2 SLP154 T02170206
KNEW 250953Z AUTO 18010KT 5SM BR FEW018 22/21 A2999 RMK AO2 SLP149 T02220211
KNEW 250853Z AUTO 18009KT 6SM BR CLR 22/21 A3000 RMK AO2 SLP153 T02220206 58013
KNEW 250753Z AUTO 19010KT 6SM BR FEW023 23/21 A3003 RMK AO2 SLP162 T02280211
KNEW 250730Z AUTO 19010KT 6SM BR SCT025 23/21 A3004 RMK AO2 T02280206
KNEW 250653Z AUTO 19012KT 6SM BR BKN025 23/21 A3004 RMK AO2 SLP166 T02280206
KNEW 250553Z AUTO 18009KT 7SM FEW090 23/21 A3004 RMK AO2 SLP166 T02330211 10256 20228 402830211 57001
KNEW 250453Z AUTO 19011KT 7SM CLR 23/21 A3004 RMK AO2 SLP166 T02330206
KNEW 250353Z AUTO 19011KT 7SM SCT030 23/21 A3004 RMK AO2 SLP167 T02330206
KNEW 250253Z 17009KT 7SM SCT029 23/21 A3004 RMK AO2 SLP167 T02330206 52013
KNEW 250153Z 17009KT 7SM SCT033 BKN044 24/21 A3003 RMK AO2 SLP163 T02390206
KNEW 250138Z 17009KT 7SM SCT022 SCT044 24/21 A3003 RMK AO2 T02390206
KNEW 250053Z 17009KT 8SM BKN025 24/21 A3002 RMK AO2 SLP158 T02440206
KNEW 250029Z 18013KT 8SM SCT027 SCT032 25/21 A3001 RMK AO2 T02500206
KNEW 250020Z 18010KT 8SM BKN027 BKN034 25/21 A3001 RMK AO2 T02500206
KNEW 242353Z 18013KT 8SM SCT029 BKN036 OVC044 26/21 A3001 RMK AO2 SLP154 T02560206 10283 20256 53005
KNEW 242253Z 19019KT 9SM FEW032 BKN060 BKN080 26/20 A2999 RMK AO2 PK WND 18026/2242 SLP149 T02610200
KNEW 242153Z 18019KT 9SM SCT033 SCT055 BKN075 27/19 A2999 RMK AO2 SLP148 T02720194
KNEW 242053Z 17017KT 9SM FEW031 SCT040 BKN049 28/20 A2999 RMK AO2 SLP149 T02780200 56026
KNEW 241953Z 17017KT 10SM FEW030 SCT038 SCT070 28/20 A3001 RMK AO2 SLP156 T02780200
KNEW 241853Z 18018G26KT 7SM FEW027 BKN035 OVC085 27/20 A3004 RMK AO2 PK WND 18026/1850 SLP166 T02670200
KNEW 241753Z 17017KT 9SM FEW029 SCT034 SCT060 28/20 A3007 RMK AO2 SLP175 T02830200 10283 20217 58017
KNEW 241653Z 16016G21KT 8SM FEW045 SCT070 27/21 A3009 RMK AO2 SLP184 T02720206
KNEW 241553Z 16014KT 8SM SCT021 SCT034 26/21 A3011 RMK AO2 SLP190 T02610206
KNEW 241453Z 17014KT 7SM CLR 24/21 A3012 RMK AO2 SLP192 T02440211 53007
KNEW 241353Z 16011KT 7SM CLR 23/21 A3011 RMK AO2 SLP188 T02330211
KNEW 241253Z 15009KT 10SM SCT035 22/20 A3009 RMK AO2 SLP184 T02170200
KNEW 241153Z AUTO 15006KT 9SM FEW036 SCT055 OVC070 22/20 A3010 RMK AO2 SLP185 70010 T02170200 10217 20211 55000
KNEW 241053Z AUTO 16008KT 7SM FEW042 OVC055 22/21 A3009 RMK AO2 SLP184 T02170206
KNEW 240953Z AUTO 15007KT 7SM CLR 21/21 A3010 RMK AO2 SLP185 T02110206
KNEW 240853Z AUTO 14007KT 6SM BR CLR 21/21 A3010 RMK AO2 SLP186 T02110206 58018
KNEW 240753Z AUTO 14006KT 6SM BR CLR 21/20 A3012 RMK AO2 SLP194 T02110200
KNEW 240653Z AUTO 15006KT 7SM CLR 22/20 A3015 RMK AO2 SLP201 T02170200
KNEW 240553Z AUTO 15006KT 8SM FEW022 SCT029 OVC095 22/20 A3015 RMK AO2 SLP204 T02170200 10233 20217 402890211 56007
KNEW 240551Z AUTO 15006KT 8SM FEW022 SCT029 BKN095 22/20 A3015 RMK AO2
KNEW 240534Z AUTO 15006KT 8SM SCT018 SCT022 BKN029 22/20 A3016 RMK AO2 T02170200
KNEW 240453Z AUTO 15006KT 8SM SCT016 22/20 A3016 RMK AO2 SLP207 T02220200
KNEW 240353Z AUTO 17007KT 6SM BR SCT050 BKN100 22/21 A3017 RMK AO2 SLP211 T02220206